createdAt,value
2018-12-07T00:00:37.361Z,23.90
2018-12-07T00:03:41.374Z,24.13
2018-12-07T00:06:45.292Z,25.60
2018-12-07T00:09:49.321Z,26.77
2018-12-07T00:12:53.194Z,25.97
2018-12-07T00:15:57.148Z,25.73
2018-12-07T00:19:01.044Z,25.13
2018-12-07T00:22:05.537Z,25.70
2018-12-07T00:25:09.814Z,25.10
2018-12-07T00:28:14.299Z,24.10
2018-12-07T00:31:18.485Z,24.97
2018-12-07T00:34:22.804Z,27.37
2018-12-07T00:37:26.673Z,25.13
2018-12-07T00:40:30.981Z,25.00
2018-12-07T00:43:35.237Z,26.17
2018-12-07T00:46:39.608Z,24.93
2018-12-07T00:49:43.873Z,23.67
2018-12-07T00:52:48.278Z,25.93
2018-12-07T00:55:52.230Z,25.47
2018-12-07T00:58:56.080Z,24.93
2018-12-07T01:01:59.974Z,24.17
2018-12-07T01:05:04.022Z,24.90
2018-12-07T01:08:08.430Z,26.63
2018-12-07T01:11:12.581Z,26.17
2018-12-07T01:14:16.870Z,27.33
2018-12-07T01:17:21.369Z,27.73
2018-12-07T01:20:25.708Z,27.63
2018-12-07T01:23:29.902Z,24.90
2018-12-07T01:26:34.102Z,25.50
2018-12-07T01:29:38.312Z,25.10
2018-12-07T01:32:42.659Z,25.33
2018-12-07T01:35:47.064Z,24.90
2018-12-07T01:38:51.461Z,24.03
2018-12-07T01:41:55.756Z,24.40
2018-12-07T01:44:59.932Z,25.47
2018-12-07T01:48:04.441Z,25.50
2018-12-07T01:51:08.566Z,24.30
2018-12-07T01:54:13.034Z,24.40
2018-12-07T01:57:17.335Z,24.13
2018-12-07T02:00:21.647Z,23.63
2018-12-07T02:03:25.768Z,23.63
2018-12-07T02:06:29.987Z,24.77
2018-12-07T02:09:34.249Z,22.40
2018-12-07T02:12:38.346Z,22.60
2018-12-07T02:15:42.587Z,26.10
2018-12-07T02:18:46.847Z,24.33
2018-12-07T02:21:51.308Z,22.90
2018-12-07T02:24:55.675Z,23.77
2018-12-07T02:28:01.410Z,22.60
2018-12-07T02:31:05.492Z,23.23
2018-12-07T02:34:09.712Z,25.63
2018-12-07T02:37:14.047Z,27.10
2018-12-07T02:40:18.382Z,28.33
2018-12-07T02:43:22.851Z,25.90
2018-12-07T02:46:27.182Z,26.57
2018-12-07T02:49:31.692Z,28.70
2018-12-07T02:52:35.987Z,25.67
2018-12-07T02:55:40.691Z,26.57
2018-12-07T02:58:45.032Z,25.87
2018-12-07T03:01:49.511Z,26.70
2018-12-07T03:04:53.837Z,26.40
2018-12-07T03:07:58.136Z,28.40
2018-12-07T03:11:02.611Z,27.13
2018-12-07T03:14:06.903Z,29.90
2018-12-07T03:17:12.148Z,29.10
2018-12-07T03:20:16.330Z,28.37
2018-12-07T03:23:20.600Z,26.50
2018-12-07T03:26:24.980Z,28.47
2018-12-07T03:29:29.276Z,27.77
2018-12-07T03:32:33.649Z,31.57
2018-12-07T03:35:38.260Z,29.30
2018-12-07T03:38:42.689Z,28.30
2018-12-07T03:41:46.995Z,28.50
2018-12-07T03:44:51.543Z,28.33
2018-12-07T03:47:55.835Z,32.87
2018-12-07T03:51:00.015Z,29.67
2018-12-07T03:54:04.484Z,28.97
2018-12-07T03:57:08.785Z,28.90
2018-12-07T04:00:13.042Z,28.27
2018-12-07T04:03:17.310Z,30.20
2018-12-07T04:06:21.595Z,30.30
2018-12-07T04:09:26.193Z,29.43
2018-12-07T04:12:30.466Z,30.23
2018-12-07T04:15:34.961Z,27.70
2018-12-07T04:18:39.120Z,29.57
2018-12-07T04:21:43.476Z,28.27
2018-12-07T04:24:47.907Z,30.40
2018-12-07T04:27:58.725Z,28.40
2018-12-07T04:31:02.969Z,26.70
2018-12-07T04:34:07.307Z,30.07
2018-12-07T04:37:11.738Z,28.43
2018-12-07T04:40:16.153Z,28.43
2018-12-07T04:43:20.576Z,26.87
2018-12-07T04:46:24.934Z,27.53
2018-12-07T04:49:29.229Z,26.87
2018-12-07T04:52:33.644Z,27.80
2018-12-07T04:55:38.099Z,28.60
2018-12-07T04:58:42.146Z,28.30
2018-12-07T05:01:46.535Z,28.60
2018-12-07T05:04:51.852Z,26.40
2018-12-07T05:07:56.079Z,27.90
2018-12-07T05:11:00.368Z,29.87
2018-12-07T05:14:04.546Z,28.03
2018-12-07T05:17:08.818Z,27.27
2018-12-07T05:20:13.077Z,26.00
2018-12-07T05:23:17.446Z,27.37
2018-12-07T05:26:21.986Z,27.00
2018-12-07T05:29:26.503Z,26.30
2018-12-07T05:32:30.758Z,26.13
2018-12-07T05:35:34.879Z,26.63
2018-12-07T05:38:39.244Z,24.53
2018-12-07T05:41:43.806Z,23.60
2018-12-07T05:44:48.168Z,25.20
2018-12-07T05:47:53.534Z,26.97
2018-12-07T05:50:57.802Z,24.30
2018-12-07T05:54:05.567Z,24.80
2018-12-07T05:57:09.678Z,26.23
2018-12-07T06:00:14.721Z,26.00
2018-12-07T06:03:19.972Z,24.77
2018-12-07T06:06:24.329Z,24.10
2018-12-07T06:09:28.958Z,26.90
2018-12-07T06:12:35.217Z,25.57
2018-12-07T06:15:39.664Z,25.87
2018-12-07T06:18:44.027Z,23.00
2018-12-07T06:21:48.409Z,24.17
2018-12-07T06:24:52.921Z,22.80
2018-12-07T06:27:57.404Z,23.07
2018-12-07T06:31:01.572Z,23.83
2018-12-07T06:34:06.343Z,26.20
2018-12-07T06:37:11.670Z,23.30
2018-12-07T06:40:16.033Z,26.50
2018-12-07T06:43:20.214Z,25.37
2018-12-07T06:46:24.756Z,25.10
2018-12-07T06:49:29.052Z,27.03
2018-12-07T06:52:33.399Z,27.40
2018-12-07T06:55:37.764Z,26.87
2018-12-07T06:58:42.015Z,28.23
2018-12-07T07:01:46.401Z,29.27
2018-12-07T07:04:50.704Z,29.87
2018-12-07T07:07:57.500Z,30.60
2018-12-07T07:11:01.779Z,33.17
2018-12-07T07:14:06.416Z,30.60
2018-12-07T07:17:11.285Z,31.70
2018-12-07T07:20:15.544Z,34.13
2018-12-07T07:23:19.885Z,29.27
2018-12-07T07:26:27.460Z,31.77
2018-12-07T07:29:31.726Z,30.37
2018-12-07T07:32:36.062Z,31.97
2018-12-07T07:35:40.873Z,31.10
2018-12-07T07:38:45.106Z,30.60
2018-12-07T07:41:49.504Z,30.63
2018-12-07T07:44:54.061Z,33.30
2018-12-07T07:47:58.445Z,32.50
2018-12-07T07:51:02.931Z,32.97
2018-12-07T07:54:07.441Z,32.23
2018-12-07T07:57:11.952Z,30.80
2018-12-07T08:00:16.077Z,31.60
2018-12-07T08:03:20.396Z,29.70
2018-12-07T08:06:25.245Z,31.70
2018-12-07T08:09:29.371Z,29.57
2018-12-07T08:12:34.148Z,28.63
2018-12-07T08:15:38.358Z,28.10
2018-12-07T08:18:42.812Z,29.47
2018-12-07T08:21:48.422Z,30.70
2018-12-07T08:24:52.934Z,29.07
2018-12-07T08:27:57.463Z,31.50
2018-12-07T08:31:01.867Z,29.57
2018-12-07T08:34:06.188Z,29.57
2018-12-07T08:37:10.596Z,28.30
2018-12-07T08:40:14.916Z,30.33
2018-12-07T08:43:19.249Z,28.83
2018-12-07T08:46:23.614Z,30.37
2018-12-07T08:49:33.227Z,27.03
2018-12-07T08:52:37.555Z,29.23
2018-12-07T08:55:41.848Z,28.23
2018-12-07T08:58:45.952Z,31.23
2018-12-07T09:01:50.221Z,29.03
2018-12-07T09:04:55.426Z,28.67
2018-12-07T09:07:59.845Z,30.20
2018-12-07T09:11:04.520Z,30.17
2018-12-07T09:14:08.921Z,28.13
2018-12-07T09:17:13.560Z,31.67
2018-12-07T09:20:17.880Z,33.77
2018-12-07T09:23:21.953Z,35.23
2018-12-07T09:26:26.301Z,31.30
2018-12-07T09:29:30.781Z,32.23
2018-12-07T09:32:35.271Z,30.87
2018-12-07T09:35:39.178Z,34.37
2018-12-07T09:38:43.377Z,37.80
2018-12-07T09:41:47.419Z,36.57
2018-12-07T09:44:51.496Z,35.97
2018-12-07T09:47:55.439Z,31.50
2018-12-07T09:51:00.225Z,32.48
2018-12-07T09:54:05.331Z,30.07
2018-12-07T09:57:09.774Z,34.23
2018-12-07T10:00:13.948Z,32.30
2018-12-07T10:03:18.217Z,31.60
2018-12-07T10:06:22.437Z,32.13
2018-12-07T10:09:26.467Z,34.50
2018-12-07T10:12:30.484Z,33.20
2018-12-07T10:15:34.677Z,32.97
2018-12-07T10:18:38.937Z,33.23
2018-12-07T10:21:43.275Z,31.17
2018-12-07T10:24:47.388Z,32.93
2018-12-07T10:27:51.624Z,31.00
2018-12-07T10:30:55.745Z,33.40
2018-12-07T10:33:59.664Z,31.83
2018-12-07T10:37:03.551Z,31.70
2018-12-07T10:40:07.960Z,30.50
2018-12-07T10:43:12.325Z,30.90
2018-12-07T10:46:16.767Z,30.30
2018-12-07T10:49:21.273Z,31.17
2018-12-07T10:52:25.143Z,30.90
2018-12-07T10:55:29.031Z,28.53
2018-12-07T10:58:33.167Z,31.63
2018-12-07T11:01:43.019Z,29.43
2018-12-07T11:04:52.608Z,29.20
2018-12-07T11:08:02.015Z,30.63
2018-12-07T11:11:11.447Z,30.67
2018-12-07T11:14:19.496Z,28.90
2018-12-07T11:17:28.985Z,28.43
2018-12-07T11:22:43.763Z,29.33
2018-12-07T11:25:53.450Z,27.83
2018-12-07T11:29:02.723Z,30.00
2018-12-07T11:32:11.894Z,28.13
2018-12-07T11:35:19.996Z,30.87
2018-12-07T11:38:23.979Z,29.10
2018-12-07T11:41:28.182Z,29.87
2018-12-07T11:44:32.500Z,27.80
2018-12-07T11:47:37.025Z,28.90
2018-12-07T11:50:41.796Z,27.33
2018-12-07T11:53:46.865Z,29.80
2018-12-07T11:56:51.165Z,28.80
2018-12-07T11:59:55.551Z,28.50
2018-12-07T12:03:00.599Z,28.45
2018-12-07T12:06:04.631Z,28.60
2018-12-07T12:09:08.792Z,26.30
2018-12-07T12:12:12.651Z,23.63
2018-12-07T12:15:16.601Z,23.53
2018-12-07T12:18:20.649Z,23.90
2018-12-07T12:21:24.625Z,23.83
2018-12-07T12:24:28.517Z,22.47
2018-12-07T12:27:32.538Z,25.20
2018-12-07T12:30:36.698Z,24.60
2018-12-07T12:33:40.996Z,22.63
2018-12-07T12:36:45.121Z,24.63
2018-12-07T12:39:49.498Z,21.37
2018-12-07T12:42:53.890Z,24.37
2018-12-07T12:45:58.194Z,22.00
2018-12-07T12:49:02.431Z,21.63
2018-12-07T12:52:06.781Z,20.90
2018-12-07T12:55:11.205Z,21.73
2018-12-07T12:58:15.971Z,20.23
2018-12-07T13:01:20.273Z,20.50
2018-12-07T13:04:24.566Z,22.90
2018-12-07T13:07:30.264Z,20.93
2018-12-07T13:10:34.518Z,20.23
2018-12-07T13:13:38.740Z,21.43
2018-12-07T13:16:43.027Z,21.77
2018-12-07T13:19:47.452Z,20.67
2018-12-07T13:22:51.729Z,20.87
2018-12-07T13:25:56.251Z,21.90
2018-12-07T13:29:00.770Z,21.80
2018-12-07T13:32:05.212Z,22.83
2018-12-07T13:35:09.473Z,22.20
2018-12-07T13:38:13.815Z,21.07
2018-12-07T13:41:18.399Z,20.97
2018-12-07T13:44:22.685Z,20.17
2018-12-07T13:47:26.955Z,16.80
2018-12-07T13:50:36.525Z,18.87
2018-12-07T13:53:40.782Z,20.00
2018-12-07T13:56:45.403Z,18.43
2018-12-07T13:59:49.951Z,17.20
2018-12-07T14:02:54.791Z,16.83
2018-12-07T14:05:59.503Z,16.20
2018-12-07T14:09:05.730Z,14.80
2018-12-07T14:12:10.309Z,15.43
2018-12-07T14:15:15.436Z,16.70
2018-12-07T14:18:20.117Z,16.73
2018-12-07T14:21:24.565Z,17.37
2018-12-07T14:24:28.840Z,16.67
2018-12-07T14:27:33.473Z,24.33
2018-12-07T14:30:38.145Z,19.23
2018-12-07T14:33:42.416Z,17.53
2018-12-07T14:36:46.497Z,18.90
2018-12-07T14:39:50.393Z,17.63
2018-12-07T14:42:54.336Z,19.00
2018-12-07T14:45:59.497Z,19.80
2018-12-07T14:49:04.068Z,16.63
2018-12-07T14:52:08.558Z,19.00
2018-12-07T14:55:12.530Z,20.03
2018-12-07T14:58:16.980Z,20.73
2018-12-07T15:01:21.511Z,19.10
2018-12-07T15:04:25.855Z,20.13
2018-12-07T15:07:30.075Z,19.87
2018-12-07T15:10:34.615Z,21.27
2018-12-07T15:13:39.031Z,20.13
2018-12-07T15:16:43.839Z,18.03
2018-12-07T15:19:48.276Z,20.20
2018-12-07T15:22:52.860Z,21.07
2018-12-07T15:25:57.332Z,24.47
2018-12-07T15:29:01.765Z,25.80
2018-12-07T15:32:06.410Z,31.70
2018-12-07T15:35:11.212Z,27.63
2018-12-07T15:38:15.614Z,26.00
2018-12-07T15:41:20.163Z,24.50
2018-12-07T15:44:24.589Z,24.27
2018-12-07T15:47:29.113Z,23.00
2018-12-07T15:50:33.697Z,26.43
2018-12-07T15:53:38.188Z,24.87
2018-12-07T15:56:42.537Z,27.60
2018-12-07T15:59:46.910Z,23.63
2018-12-07T16:02:51.459Z,22.77
2018-12-07T16:05:56.186Z,25.77
2018-12-07T16:09:00.736Z,22.00
2018-12-07T16:12:04.892Z,20.83
2018-12-07T16:15:09.406Z,17.80
2018-12-07T16:18:14.033Z,19.30
2018-12-07T16:21:18.631Z,20.50
2018-12-07T16:24:23.181Z,21.83
2018-12-07T16:27:27.717Z,20.77
2018-12-07T16:30:32.276Z,20.90
2018-12-07T16:33:36.941Z,32.93
2018-12-07T16:36:41.806Z,23.43
2018-12-07T16:39:46.254Z,24.57
2018-12-07T16:42:50.961Z,24.63
2018-12-07T16:45:55.350Z,22.20
2018-12-07T16:49:00.042Z,21.60
2018-12-07T16:52:04.447Z,21.27
2018-12-07T16:55:08.954Z,21.67
2018-12-07T16:58:13.556Z,23.13
2018-12-07T17:01:18.113Z,24.67
2018-12-07T17:04:22.736Z,25.30
2018-12-07T17:07:27.258Z,22.80
2018-12-07T17:10:31.782Z,22.57
2018-12-07T17:13:36.382Z,22.63
2018-12-07T17:16:41.453Z,23.30
2018-12-07T17:19:45.759Z,23.03
2018-12-07T17:22:50.271Z,24.90
2018-12-07T17:25:55.060Z,22.40
2018-12-07T17:28:59.385Z,22.67
2018-12-07T17:32:04.383Z,21.30
2018-12-07T17:35:09.540Z,21.73
2018-12-07T17:38:13.864Z,20.90
2018-12-07T17:41:20.589Z,20.63
2018-12-07T17:44:25.522Z,28.20
2018-12-07T17:47:29.902Z,33.00
2018-12-07T17:50:34.274Z,29.07
2018-12-07T17:53:38.934Z,25.10
2018-12-07T17:56:43.312Z,22.93
2018-12-07T17:59:47.649Z,23.90
2018-12-07T18:02:51.853Z,26.83
2018-12-07T18:05:56.450Z,25.10
2018-12-07T18:09:01.842Z,24.40
2018-12-07T18:12:06.521Z,23.50
2018-12-07T18:15:10.918Z,21.00
2018-12-07T18:18:16.528Z,21.90
2018-12-07T18:21:21.397Z,24.17
2018-12-07T18:24:26.808Z,32.00
2018-12-07T18:27:31.954Z,24.63
2018-12-07T18:30:36.343Z,22.30
2018-12-07T18:33:41.395Z,21.10
2018-12-07T18:36:46.257Z,23.00
2018-12-07T18:39:50.353Z,23.10
2018-12-07T18:42:55.413Z,23.57
2018-12-07T18:46:00.185Z,22.67
2018-12-07T18:49:05.160Z,22.97
2018-12-07T18:52:09.466Z,23.50
2018-12-07T18:55:14.138Z,23.50
2018-12-07T18:58:18.274Z,25.93
2018-12-07T19:01:22.498Z,32.97
2018-12-07T19:04:27.180Z,32.40
2018-12-07T19:07:31.922Z,31.10
2018-12-07T19:10:36.426Z,27.40
2018-12-07T19:13:40.957Z,27.10
2018-12-07T19:16:45.439Z,27.07
2018-12-07T19:19:49.836Z,25.33
2018-12-07T19:22:54.511Z,26.70
2018-12-07T19:25:58.653Z,26.37
2018-12-07T19:29:03.063Z,26.70
2018-12-07T19:32:07.679Z,28.33
2018-12-07T19:35:12.290Z,28.07
2018-12-07T19:38:18.334Z,27.43
2018-12-07T19:41:22.747Z,23.17
2018-12-07T19:44:27.324Z,22.57
2018-12-07T19:47:32.035Z,19.70
2018-12-07T19:50:36.695Z,22.13
2018-12-07T19:53:41.327Z,21.43
2018-12-07T19:56:45.730Z,22.40
2018-12-07T19:59:49.965Z,19.83
2018-12-07T20:02:54.584Z,22.70
2018-12-07T20:05:59.131Z,20.90
2018-12-07T20:09:05.598Z,21.70
2018-12-07T20:12:10.594Z,21.70
2018-12-07T20:15:15.267Z,20.43
2018-12-07T20:18:19.832Z,24.60
2018-12-07T20:21:24.010Z,25.80
2018-12-07T20:24:28.421Z,32.80
2018-12-07T20:27:32.747Z,31.47
2018-12-07T20:30:37.259Z,33.30
2018-12-07T20:33:41.608Z,33.33
2018-12-07T20:36:46.228Z,35.20
2018-12-07T20:39:50.843Z,33.83
2018-12-07T20:42:55.367Z,32.57
2018-12-07T20:46:01.903Z,34.40
2018-12-07T20:49:06.384Z,31.60
2018-12-07T20:52:10.950Z,30.27
2018-12-07T20:55:15.680Z,29.83
2018-12-07T20:58:20.226Z,32.20
2018-12-07T21:01:24.529Z,30.87
2018-12-07T21:04:33.431Z,31.47
2018-12-07T21:08:01.760Z,30.63
2018-12-07T21:11:42.466Z,29.93
2018-12-07T21:14:50.145Z,28.47
2018-12-07T21:17:55.332Z,29.57
2018-12-07T21:20:59.971Z,29.33
2018-12-07T21:24:04.714Z,26.00
2018-12-07T21:27:09.773Z,27.67
2018-12-07T21:30:55.089Z,25.40
2018-12-07T21:34:11.179Z,27.17
2018-12-07T21:37:15.526Z,26.87
2018-12-07T21:40:24.976Z,25.77
2018-12-07T21:43:29.561Z,25.10
2018-12-07T21:46:34.089Z,23.50
2018-12-07T21:49:51.281Z,24.13
2018-12-07T21:52:56.545Z,21.13
2018-12-07T21:56:01.809Z,21.87
2018-12-07T21:59:06.437Z,23.07
2018-12-07T22:02:11.331Z,20.10
2018-12-07T22:05:16.010Z,20.47
2018-12-07T22:08:20.716Z,21.13
2018-12-07T22:11:25.058Z,20.60
2018-12-07T22:14:29.862Z,19.90
2018-12-07T22:17:34.568Z,21.07
2018-12-07T22:20:38.961Z,19.20
2018-12-07T22:23:43.208Z,20.50
2018-12-07T22:26:47.598Z,20.97
2018-12-07T22:29:52.458Z,20.10
2018-12-07T22:32:57.083Z,19.47
2018-12-07T22:36:01.623Z,19.53
2018-12-07T22:39:08.399Z,19.73
2018-12-07T22:42:13.257Z,20.30
2018-12-07T22:45:19.268Z,22.10
2018-12-07T22:48:23.906Z,22.73
2018-12-07T22:51:28.325Z,25.90
2018-12-07T22:54:32.741Z,28.57
2018-12-07T22:57:37.245Z,28.57
2018-12-07T23:00:44.306Z,27.53
2018-12-07T23:03:50.013Z,27.37
2018-12-07T23:06:54.423Z,27.47
2018-12-07T23:09:59.448Z,27.73
2018-12-07T23:13:04.056Z,24.73
2018-12-07T23:16:08.575Z,27.07
2018-12-07T23:19:12.985Z,25.87
2018-12-07T23:22:17.301Z,24.50
2018-12-07T23:25:22.302Z,24.60
2018-12-07T23:28:26.678Z,24.30
2018-12-07T23:31:31.043Z,23.47
2018-12-07T23:34:35.603Z,26.47
2018-12-07T23:37:41.141Z,22.63
2018-12-07T23:40:45.574Z,23.83
2018-12-07T23:43:49.874Z,21.83
2018-12-07T23:46:54.156Z,22.73
2018-12-07T23:49:58.408Z,19.97
2018-12-07T23:53:02.735Z,19.07
2018-12-07T23:56:07.001Z,19.87
2018-12-07T23:59:11.402Z,17.93
